sensor_id;sensor_type;location;lat;lon;timestamp;P1;durP1;ratioP1;P2;durP2;ratioP2
30723;SDS011;17473;52.286;20.930;2023-01-10T00:00:53;45.60;;;24.50;;
30723;SDS011;17473;52.286;20.930;2023-01-10T00:03:20;46.83;;;24.67;;
30723;SDS011;17473;52.286;20.930;2023-01-10T00:05:47;46.20;;;25.53;;
30723;SDS011;17473;52.286;20.930;2023-01-10T00:08:15;45.03;;;24.97;;
30723;SDS011;17473;52.286;20.930;2023-01-10T00:10:42;50.23;;;25.20;;
30723;SDS011;17473;52.286;20.930;2023-01-10T00:13:12;43.53;;;23.60;;
30723;SDS011;17473;52.286;20.930;2023-01-10T00:15:51;45.40;;;23.70;;
30723;SDS011;17473;52.286;20.930;2023-01-10T00:18:20;47.43;;;24.40;;
30723;SDS011;17473;52.286;20.930;2023-01-10T00:20:48;47.80;;;24.03;;
30723;SDS011;17473;52.286;20.930;2023-01-10T00:23:15;50.13;;;25.93;;
30723;SDS011;17473;52.286;20.930;2023-01-10T00:25:43;44.50;;;24.53;;
30723;SDS011;17473;52.286;20.930;2023-01-10T00:28:11;48.93;;;25.73;;
30723;SDS011;17473;52.286;20.930;2023-01-10T00:30:49;43.90;;;24.60;;
30723;SDS011;17473;52.286;20.930;2023-01-10T00:33:26;45.13;;;24.13;;
30723;SDS011;17473;52.286;20.930;2023-01-10T00:35:55;46.17;;;24.17;;
30723;SDS011;17473;52.286;20.930;2023-01-10T00:38:22;46.57;;;24.43;;
30723;SDS011;17473;52.286;20.930;2023-01-10T00:40:49;47.17;;;24.90;;
30723;SDS011;17473;52.286;20.930;2023-01-10T00:43:16;52.17;;;25.37;;
30723;SDS011;17473;52.286;20.930;2023-01-10T00:46:02;49.70;;;25.37;;
30723;SDS011;17473;52.286;20.930;2023-01-10T00:48:29;46.30;;;25.30;;
30723;SDS011;17473;52.286;20.930;2023-01-10T00:50:56;54.17;;;26.77;;
30723;SDS011;17473;52.286;20.930;2023-01-10T00:53:23;54.20;;;26.90;;
30723;SDS011;17473;52.286;20.930;2023-01-10T00:55:50;47.57;;;25.20;;
30723;SDS011;17473;52.286;20.930;2023-01-10T00:58:20;48.00;;;25.23;;
30723;SDS011;17473;52.286;20.930;2023-01-10T01:00:47;48.53;;;25.63;;
30723;SDS011;17473;52.286;20.930;2023-01-10T01:03:16;48.10;;;24.30;;
30723;SDS011;17473;52.286;20.930;2023-01-10T01:05:45;48.90;;;25.00;;
30723;SDS011;17473;52.286;20.930;2023-01-10T01:08:14;49.73;;;24.47;;
30723;SDS011;17473;52.286;20.930;2023-01-10T01:10:43;45.27;;;25.10;;
30723;SDS011;17473;52.286;20.930;2023-01-10T01:13:12;49.47;;;26.10;;
30723;SDS011;17473;52.286;20.930;2023-01-10T01:15:45;51.10;;;26.17;;
30723;SDS011;17473;52.286;20.930;2023-01-10T01:18:17;48.27;;;25.77;;
30723;SDS011;17473;52.286;20.930;2023-01-10T01:20:47;52.23;;;26.80;;
30723;SDS011;17473;52.286;20.930;2023-01-10T01:23:18;56.13;;;27.27;;
30723;SDS011;17473;52.286;20.930;2023-01-10T01:25:48;53.37;;;27.07;;
30723;SDS011;17473;52.286;20.930;2023-01-10T01:28:17;59.20;;;27.83;;
30723;SDS011;17473;52.286;20.930;2023-01-10T01:30:44;55.60;;;27.67;;
30723;SDS011;17473;52.286;20.930;2023-01-10T01:33:12;55.77;;;28.70;;
30723;SDS011;17473;52.286;20.930;2023-01-10T01:35:42;51.60;;;26.87;;
30723;SDS011;17473;52.286;20.930;2023-01-10T01:38:11;55.50;;;28.03;;
30723;SDS011;17473;52.286;20.930;2023-01-10T01:40:39;57.47;;;28.67;;
30723;SDS011;17473;52.286;20.930;2023-01-10T01:43:21;53.13;;;27.43;;
30723;SDS011;17473;52.286;20.930;2023-01-10T01:46:00;55.27;;;28.03;;
30723;SDS011;17473;52.286;20.930;2023-01-10T01:48:36;58.50;;;28.13;;
30723;SDS011;17473;52.286;20.930;2023-01-10T01:51:21;56.53;;;27.77;;
30723;SDS011;17473;52.286;20.930;2023-01-10T01:54:03;59.90;;;27.43;;
30723;SDS011;17473;52.286;20.930;2023-01-10T01:59:19;57.73;;;28.73;;
30723;SDS011;17473;52.286;20.930;2023-01-10T02:01:55;58.30;;;27.67;;
30723;SDS011;17473;52.286;20.930;2023-01-10T02:04:41;57.00;;;28.83;;
30723;SDS011;17473;52.286;20.930;2023-01-10T02:07:14;55.37;;;28.90;;
30723;SDS011;17473;52.286;20.930;2023-01-10T02:09:45;55.97;;;28.70;;
30723;SDS011;17473;52.286;20.930;2023-01-10T02:12:19;59.27;;;28.67;;
30723;SDS011;17473;52.286;20.930;2023-01-10T02:14:47;58.53;;;29.67;;
30723;SDS011;17473;52.286;20.930;2023-01-10T02:17:16;66.00;;;31.40;;
30723;SDS011;17473;52.286;20.930;2023-01-10T02:19:57;60.63;;;30.73;;
30723;SDS011;17473;52.286;20.930;2023-01-10T02:25:52;59.37;;;30.20;;
30723;SDS011;17473;52.286;20.930;2023-01-10T02:28:47;62.97;;;28.20;;
30723;SDS011;17473;52.286;20.930;2023-01-10T02:34:34;57.37;;;28.70;;
30723;SDS011;17473;52.286;20.930;2023-01-10T02:37:24;57.40;;;28.33;;
30723;SDS011;17473;52.286;20.930;2023-01-10T02:40:03;59.70;;;30.20;;
30723;SDS011;17473;52.286;20.930;2023-01-10T02:45:53;60.67;;;28.73;;
30723;SDS011;17473;52.286;20.930;2023-01-10T02:48:31;53.37;;;27.17;;
30723;SDS011;17473;52.286;20.930;2023-01-10T02:51:02;57.97;;;29.47;;
30723;SDS011;17473;52.286;20.930;2023-01-10T02:53:38;59.30;;;29.40;;
30723;SDS011;17473;52.286;20.930;2023-01-10T02:59:04;62.80;;;30.10;;
30723;SDS011;17473;52.286;20.930;2023-01-10T03:04:40;63.07;;;30.93;;
30723;SDS011;17473;52.286;20.930;2023-01-10T03:07:38;55.53;;;29.27;;
30723;SDS011;17473;52.286;20.930;2023-01-10T03:11:13;58.43;;;28.77;;
30723;SDS011;17473;52.286;20.930;2023-01-10T03:13:51;51.47;;;27.30;;
30723;SDS011;17473;52.286;20.930;2023-01-10T03:16:23;55.87;;;29.07;;
30723;SDS011;17473;52.286;20.930;2023-01-10T03:18:58;58.73;;;29.00;;
30723;SDS011;17473;52.286;20.930;2023-01-10T03:21:33;59.53;;;28.93;;
30723;SDS011;17473;52.286;20.930;2023-01-10T03:24:05;58.13;;;27.93;;
30723;SDS011;17473;52.286;20.930;2023-01-10T03:26:53;58.00;;;29.03;;
30723;SDS011;17473;52.286;20.930;2023-01-10T03:29:33;57.43;;;28.90;;
30723;SDS011;17473;52.286;20.930;2023-01-10T03:32:38;56.93;;;27.13;;
30723;SDS011;17473;52.286;20.930;2023-01-10T03:35:06;54.60;;;28.33;;
30723;SDS011;17473;52.286;20.930;2023-01-10T03:37:37;50.00;;;27.30;;
30723;SDS011;17473;52.286;20.930;2023-01-10T03:43:20;61.50;;;30.43;;
30723;SDS011;17473;52.286;20.930;2023-01-10T03:46:29;50.77;;;27.13;;
30723;SDS011;17473;52.286;20.930;2023-01-10T03:49:22;52.27;;;27.00;;
30723;SDS011;17473;52.286;20.930;2023-01-10T03:51:52;53.17;;;27.47;;
30723;SDS011;17473;52.286;20.930;2023-01-10T03:54:22;60.20;;;30.47;;
30723;SDS011;17473;52.286;20.930;2023-01-10T03:56:49;53.37;;;27.70;;
30723;SDS011;17473;52.286;20.930;2023-01-10T03:59:20;57.93;;;28.23;;
30723;SDS011;17473;52.286;20.930;2023-01-10T04:01:51;60.70;;;29.93;;
30723;SDS011;17473;52.286;20.930;2023-01-10T04:04:19;58.83;;;29.07;;
30723;SDS011;17473;52.286;20.930;2023-01-10T04:06:47;60.83;;;28.70;;
30723;SDS011;17473;52.286;20.930;2023-01-10T04:09:14;60.10;;;29.57;;
30723;SDS011;17473;52.286;20.930;2023-01-10T04:11:41;53.77;;;27.17;;
30723;SDS011;17473;52.286;20.930;2023-01-10T04:14:08;59.83;;;31.47;;
30723;SDS011;17473;52.286;20.930;2023-01-10T04:16:35;64.70;;;31.17;;
30723;SDS011;17473;52.286;20.930;2023-01-10T04:19:02;62.47;;;29.27;;
30723;SDS011;17473;52.286;20.930;2023-01-10T04:21:29;56.47;;;29.63;;
30723;SDS011;17473;52.286;20.930;2023-01-10T04:23:56;65.27;;;31.50;;
30723;SDS011;17473;52.286;20.930;2023-01-10T04:26:23;63.23;;;30.80;;
30723;SDS011;17473;52.286;20.930;2023-01-10T04:28:50;63.10;;;28.97;;
30723;SDS011;17473;52.286;20.930;2023-01-10T04:31:17;61.67;;;31.37;;
30723;SDS011;17473;52.286;20.930;2023-01-10T04:33:45;60.70;;;30.43;;
30723;SDS011;17473;52.286;20.930;2023-01-10T04:36:12;67.80;;;29.33;;
30723;SDS011;17473;52.286;20.930;2023-01-10T04:38:39;60.60;;;30.90;;
30723;SDS011;17473;52.286;20.930;2023-01-10T04:41:06;64.57;;;31.27;;
30723;SDS011;17473;52.286;20.930;2023-01-10T04:43:34;66.80;;;29.70;;
30723;SDS011;17473;52.286;20.930;2023-01-10T04:46:01;62.40;;;31.40;;
30723;SDS011;17473;52.286;20.930;2023-01-10T04:48:29;64.77;;;31.00;;
30723;SDS011;17473;52.286;20.930;2023-01-10T04:50:56;61.27;;;30.30;;
30723;SDS011;17473;52.286;20.930;2023-01-10T04:53:24;61.37;;;30.33;;
30723;SDS011;17473;52.286;20.930;2023-01-10T04:55:51;58.47;;;29.57;;
30723;SDS011;17473;52.286;20.930;2023-01-10T04:58:18;60.37;;;29.87;;
30723;SDS011;17473;52.286;20.930;2023-01-10T05:00:45;57.47;;;29.03;;
30723;SDS011;17473;52.286;20.930;2023-01-10T05:03:13;60.40;;;28.43;;
30723;SDS011;17473;52.286;20.930;2023-01-10T05:05:43;55.67;;;29.10;;
30723;SDS011;17473;52.286;20.930;2023-01-10T05:08:10;57.90;;;29.50;;
30723;SDS011;17473;52.286;20.930;2023-01-10T05:10:37;59.73;;;29.50;;
30723;SDS011;17473;52.286;20.930;2023-01-10T05:13:04;56.53;;;29.90;;
30723;SDS011;17473;52.286;20.930;2023-01-10T05:15:31;54.50;;;28.43;;
30723;SDS011;17473;52.286;20.930;2023-01-10T05:17:58;59.63;;;28.47;;
30723;SDS011;17473;52.286;20.930;2023-01-10T05:20:26;55.90;;;29.53;;
30723;SDS011;17473;52.286;20.930;2023-01-10T05:22:53;56.33;;;26.40;;
30723;SDS011;17473;52.286;20.930;2023-01-10T05:25:21;61.37;;;28.63;;
30723;SDS011;17473;52.286;20.930;2023-01-10T05:27:48;55.07;;;28.77;;
30723;SDS011;17473;52.286;20.930;2023-01-10T05:30:15;55.27;;;28.70;;
30723;SDS011;17473;52.286;20.930;2023-01-10T05:32:43;56.37;;;29.43;;
30723;SDS011;17473;52.286;20.930;2023-01-10T05:35:10;56.30;;;28.10;;
30723;SDS011;17473;52.286;20.930;2023-01-10T05:37:37;56.37;;;27.93;;
30723;SDS011;17473;52.286;20.930;2023-01-10T05:40:05;57.07;;;29.80;;
30723;SDS011;17473;52.286;20.930;2023-01-10T05:42:33;57.90;;;28.00;;
30723;SDS011;17473;52.286;20.930;2023-01-10T05:45:00;51.13;;;27.90;;
30723;SDS011;17473;52.286;20.930;2023-01-10T05:47:27;58.93;;;28.13;;
30723;SDS011;17473;52.286;20.930;2023-01-10T05:49:54;56.13;;;28.63;;
30723;SDS011;17473;52.286;20.930;2023-01-10T05:52:21;54.33;;;27.97;;
30723;SDS011;17473;52.286;20.930;2023-01-10T05:54:48;59.33;;;27.50;;
30723;SDS011;17473;52.286;20.930;2023-01-10T05:57:15;59.03;;;28.53;;
30723;SDS011;17473;52.286;20.930;2023-01-10T05:59:44;52.73;;;27.73;;
30723;SDS011;17473;52.286;20.930;2023-01-10T06:02:11;54.60;;;27.87;;
30723;SDS011;17473;52.286;20.930;2023-01-10T06:04:38;52.17;;;28.00;;
30723;SDS011;17473;52.286;20.930;2023-01-10T06:07:05;53.13;;;29.80;;
30723;SDS011;17473;52.286;20.930;2023-01-10T06:09:32;58.87;;;29.07;;
30723;SDS011;17473;52.286;20.930;2023-01-10T06:11:59;57.87;;;27.97;;
30723;SDS011;17473;52.286;20.930;2023-01-10T06:14:27;56.47;;;28.43;;
30723;SDS011;17473;52.286;20.930;2023-01-10T06:16:54;54.80;;;27.43;;
30723;SDS011;17473;52.286;20.930;2023-01-10T06:19:21;54.63;;;28.47;;
30723;SDS011;17473;52.286;20.930;2023-01-10T06:21:48;53.80;;;26.90;;
30723;SDS011;17473;52.286;20.930;2023-01-10T06:24:15;56.97;;;28.60;;
30723;SDS011;17473;52.286;20.930;2023-01-10T06:26:42;53.37;;;27.43;;
30723;SDS011;17473;52.286;20.930;2023-01-10T06:29:09;60.50;;;27.63;;
30723;SDS011;17473;52.286;20.930;2023-01-10T06:31:36;57.87;;;28.53;;
30723;SDS011;17473;52.286;20.930;2023-01-10T06:34:03;55.67;;;29.40;;
30723;SDS011;17473;52.286;20.930;2023-01-10T06:36:30;55.00;;;27.40;;
30723;SDS011;17473;52.286;20.930;2023-01-10T06:38:57;56.50;;;28.67;;
30723;SDS011;17473;52.286;20.930;2023-01-10T06:41:24;56.07;;;28.30;;
30723;SDS011;17473;52.286;20.930;2023-01-10T06:43:51;59.83;;;29.43;;
30723;SDS011;17473;52.286;20.930;2023-01-10T06:46:19;56.80;;;29.40;;
30723;SDS011;17473;52.286;20.930;2023-01-10T06:48:46;51.93;;;28.70;;
30723;SDS011;17473;52.286;20.930;2023-01-10T06:51:13;59.83;;;27.80;;
30723;SDS011;17473;52.286;20.930;2023-01-10T06:53:45;57.57;;;29.33;;
30723;SDS011;17473;52.286;20.930;2023-01-10T06:56:12;53.70;;;28.73;;
30723;SDS011;17473;52.286;20.930;2023-01-10T06:58:39;48.60;;;27.37;;
30723;SDS011;17473;52.286;20.930;2023-01-10T07:01:08;51.43;;;27.20;;
30723;SDS011;17473;52.286;20.930;2023-01-10T07:03:40;50.90;;;27.93;;
30723;SDS011;17473;52.286;20.930;2023-01-10T07:06:07;54.23;;;28.30;;
30723;SDS011;17473;52.286;20.930;2023-01-10T07:08:39;56.20;;;27.93;;
30723;SDS011;17473;52.286;20.930;2023-01-10T07:11:09;49.37;;;27.37;;
30723;SDS011;17473;52.286;20.930;2023-01-10T07:13:36;50.30;;;28.13;;
30723;SDS011;17473;52.286;20.930;2023-01-10T07:16:08;56.43;;;28.57;;
30723;SDS011;17473;52.286;20.930;2023-01-10T07:18:39;55.53;;;29.53;;
30723;SDS011;17473;52.286;20.930;2023-01-10T07:21:08;48.43;;;27.87;;
30723;SDS011;17473;52.286;20.930;2023-01-10T07:23:36;49.90;;;27.27;;
30723;SDS011;17473;52.286;20.930;2023-01-10T07:26:05;52.60;;;28.23;;
30723;SDS011;17473;52.286;20.930;2023-01-10T07:28:35;51.53;;;27.30;;
30723;SDS011;17473;52.286;20.930;2023-01-10T07:31:03;54.20;;;27.57;;
30723;SDS011;17473;52.286;20.930;2023-01-10T07:33:31;50.50;;;27.43;;
30723;SDS011;17473;52.286;20.930;2023-01-10T07:35:59;52.00;;;27.33;;
30723;SDS011;17473;52.286;20.930;2023-01-10T07:38:27;50.50;;;26.87;;
30723;SDS011;17473;52.286;20.930;2023-01-10T07:40:55;48.40;;;26.43;;
30723;SDS011;17473;52.286;20.930;2023-01-10T07:43:22;52.03;;;25.33;;
30723;SDS011;17473;52.286;20.930;2023-01-10T07:45:49;43.73;;;25.20;;
30723;SDS011;17473;52.286;20.930;2023-01-10T07:48:16;53.10;;;28.13;;
30723;SDS011;17473;52.286;20.930;2023-01-10T07:50:43;46.30;;;25.10;;
30723;SDS011;17473;52.286;20.930;2023-01-10T07:53:11;50.07;;;25.93;;
30723;SDS011;17473;52.286;20.930;2023-01-10T07:55:38;45.20;;;24.13;;
30723;SDS011;17473;52.286;20.930;2023-01-10T07:58:06;41.90;;;23.27;;
30723;SDS011;17473;52.286;20.930;2023-01-10T08:00:33;45.90;;;24.47;;
30723;SDS011;17473;52.286;20.930;2023-01-10T08:03:01;42.37;;;23.43;;
30723;SDS011;17473;52.286;20.930;2023-01-10T16:58:57;41.47;;;20.87;;
30723;SDS011;17473;52.286;20.930;2023-01-10T17:01:32;39.30;;;20.67;;
30723;SDS011;17473;52.286;20.930;2023-01-10T17:04:07;38.53;;;19.67;;
30723;SDS011;17473;52.286;20.930;2023-01-10T17:06:37;38.83;;;21.23;;
30723;SDS011;17473;52.286;20.930;2023-01-10T17:09:06;39.37;;;20.30;;
30723;SDS011;17473;52.286;20.930;2023-01-10T17:11:46;39.90;;;21.47;;
30723;SDS011;17473;52.286;20.930;2023-01-10T17:14:19;37.00;;;20.27;;
30723;SDS011;17473;52.286;20.930;2023-01-10T17:16:46;44.37;;;22.17;;
30723;SDS011;17473;52.286;20.930;2023-01-10T17:19:13;39.97;;;21.23;;
30723;SDS011;17473;52.286;20.930;2023-01-10T17:21:41;38.87;;;21.80;;
30723;SDS011;17473;52.286;20.930;2023-01-10T17:24:08;39.50;;;21.17;;
30723;SDS011;17473;52.286;20.930;2023-01-10T17:26:36;44.53;;;21.43;;
30723;SDS011;17473;52.286;20.930;2023-01-10T17:29:03;39.50;;;20.97;;
30723;SDS011;17473;52.286;20.930;2023-01-10T17:31:30;41.43;;;20.97;;
30723;SDS011;17473;52.286;20.930;2023-01-10T17:33:57;42.73;;;22.27;;
30723;SDS011;17473;52.286;20.930;2023-01-10T17:36:24;40.90;;;21.13;;
30723;SDS011;17473;52.286;20.930;2023-01-10T17:38:57;40.80;;;21.77;;
30723;SDS011;17473;52.286;20.930;2023-01-10T17:41:25;38.70;;;21.70;;
30723;SDS011;17473;52.286;20.930;2023-01-10T17:43:52;42.40;;;22.13;;
30723;SDS011;17473;52.286;20.930;2023-01-10T17:46:19;43.23;;;22.43;;
30723;SDS011;17473;52.286;20.930;2023-01-10T17:48:47;43.07;;;22.60;;
30723;SDS011;17473;52.286;20.930;2023-01-10T17:51:14;42.00;;;20.50;;
30723;SDS011;17473;52.286;20.930;2023-01-10T17:53:42;39.50;;;21.60;;
30723;SDS011;17473;52.286;20.930;2023-01-10T17:56:09;40.70;;;21.63;;
30723;SDS011;17473;52.286;20.930;2023-01-10T17:58:37;40.43;;;22.13;;
30723;SDS011;17473;52.286;20.930;2023-01-10T18:01:04;42.67;;;21.93;;
30723;SDS011;17473;52.286;20.930;2023-01-10T18:03:31;37.50;;;21.03;;
30723;SDS011;17473;52.286;20.930;2023-01-10T18:05:59;42.97;;;22.30;;
30723;SDS011;17473;52.286;20.930;2023-01-10T18:08:26;41.23;;;21.23;;
30723;SDS011;17473;52.286;20.930;2023-01-10T18:10:59;39.37;;;21.37;;
30723;SDS011;17473;52.286;20.930;2023-01-10T18:13:27;42.13;;;22.60;;
30723;SDS011;17473;52.286;20.930;2023-01-10T18:15:56;46.27;;;21.97;;
30723;SDS011;17473;52.286;20.930;2023-01-10T18:18:24;37.50;;;20.93;;
30723;SDS011;17473;52.286;20.930;2023-01-10T18:20:53;40.77;;;21.77;;
30723;SDS011;17473;52.286;20.930;2023-01-10T18:23:23;40.40;;;22.27;;
30723;SDS011;17473;52.286;20.930;2023-01-10T18:26:02;42.10;;;21.70;;
30723;SDS011;17473;52.286;20.930;2023-01-10T18:28:38;42.57;;;22.00;;
30723;SDS011;17473;52.286;20.930;2023-01-10T18:31:13;42.13;;;21.40;;
30723;SDS011;17473;52.286;20.930;2023-01-10T18:33:43;42.63;;;21.93;;
30723;SDS011;17473;52.286;20.930;2023-01-10T18:36:17;40.70;;;22.10;;
30723;SDS011;17473;52.286;20.930;2023-01-10T18:38:48;47.67;;;23.33;;
30723;SDS011;17473;52.286;20.930;2023-01-10T18:41:17;45.47;;;23.53;;
30723;SDS011;17473;52.286;20.930;2023-01-10T18:43:45;41.20;;;21.80;;
30723;SDS011;17473;52.286;20.930;2023-01-10T18:46:15;46.03;;;23.57;;
30723;SDS011;17473;52.286;20.930;2023-01-10T18:48:45;45.97;;;25.17;;
30723;SDS011;17473;52.286;20.930;2023-01-10T18:51:15;42.47;;;24.43;;
30723;SDS011;17473;52.286;20.930;2023-01-10T18:53:44;42.27;;;22.13;;
30723;SDS011;17473;52.286;20.930;2023-01-10T18:56:12;40.67;;;22.47;;
30723;SDS011;17473;52.286;20.930;2023-01-10T18:58:40;45.90;;;23.10;;
30723;SDS011;17473;52.286;20.930;2023-01-10T19:01:14;46.50;;;24.57;;
30723;SDS011;17473;52.286;20.930;2023-01-10T19:03:44;44.60;;;23.40;;
30723;SDS011;17473;52.286;20.930;2023-01-10T19:06:13;42.27;;;23.30;;
30723;SDS011;17473;52.286;20.930;2023-01-10T19:08:42;45.90;;;23.40;;
30723;SDS011;17473;52.286;20.930;2023-01-10T19:11:11;46.33;;;23.60;;
30723;SDS011;17473;52.286;20.930;2023-01-10T19:13:42;44.43;;;22.27;;
30723;SDS011;17473;52.286;20.930;2023-01-10T19:18:52;47.67;;;22.47;;
30723;SDS011;17473;52.286;20.930;2023-01-10T19:21:22;44.00;;;23.67;;
30723;SDS011;17473;52.286;20.930;2023-01-10T19:23:52;45.13;;;22.57;;
30723;SDS011;17473;52.286;20.930;2023-01-10T19:26:21;43.33;;;22.37;;
30723;SDS011;17473;52.286;20.930;2023-01-10T19:28:49;40.13;;;22.40;;
30723;SDS011;17473;52.286;20.930;2023-01-10T19:31:17;42.63;;;22.50;;
30723;SDS011;17473;52.286;20.930;2023-01-10T19:33:53;46.40;;;23.63;;
30723;SDS011;17473;52.286;20.930;2023-01-10T19:36:24;43.97;;;24.13;;
30723;SDS011;17473;52.286;20.930;2023-01-10T19:38:55;46.00;;;23.63;;
30723;SDS011;17473;52.286;20.930;2023-01-10T19:41:24;40.33;;;21.80;;
30723;SDS011;17473;52.286;20.930;2023-01-10T19:44:03;41.07;;;23.73;;
30723;SDS011;17473;52.286;20.930;2023-01-10T19:46:37;48.80;;;24.87;;
30723;SDS011;17473;52.286;20.930;2023-01-10T19:49:06;46.07;;;25.17;;
30723;SDS011;17473;52.286;20.930;2023-01-10T19:51:37;44.40;;;24.03;;
30723;SDS011;17473;52.286;20.930;2023-01-10T19:54:06;53.23;;;25.83;;
30723;SDS011;17473;52.286;20.930;2023-01-10T19:56:34;45.20;;;24.57;;
30723;SDS011;17473;52.286;20.930;2023-01-10T19:59:01;44.93;;;25.07;;
30723;SDS011;17473;52.286;20.930;2023-01-10T20:01:30;47.40;;;25.77;;
30723;SDS011;17473;52.286;20.930;2023-01-10T20:03:58;49.27;;;26.33;;
30723;SDS011;17473;52.286;20.930;2023-01-10T20:06:28;49.30;;;27.23;;
30723;SDS011;17473;52.286;20.930;2023-01-10T20:08:57;51.10;;;26.17;;
30723;SDS011;17473;52.286;20.930;2023-01-10T20:11:25;45.37;;;26.10;;
30723;SDS011;17473;52.286;20.930;2023-01-10T20:14:05;55.03;;;27.67;;
30723;SDS011;17473;52.286;20.930;2023-01-10T20:16:42;53.43;;;27.27;;
30723;SDS011;17473;52.286;20.930;2023-01-10T20:19:10;54.43;;;28.57;;
30723;SDS011;17473;52.286;20.930;2023-01-10T20:21:39;51.00;;;27.73;;
30723;SDS011;17473;52.286;20.930;2023-01-10T20:24:11;45.70;;;26.37;;
30723;SDS011;17473;52.286;20.930;2023-01-10T20:26:42;43.27;;;25.07;;
30723;SDS011;17473;52.286;20.930;2023-01-10T20:29:11;47.57;;;26.13;;
30723;SDS011;17473;52.286;20.930;2023-01-10T20:31:39;48.53;;;26.67;;
30723;SDS011;17473;52.286;20.930;2023-01-10T20:34:08;49.03;;;27.27;;
30723;SDS011;17473;52.286;20.930;2023-01-10T20:36:35;46.70;;;26.93;;
30723;SDS011;17473;52.286;20.930;2023-01-10T20:39:02;54.33;;;28.47;;
30723;SDS011;17473;52.286;20.930;2023-01-10T20:41:29;53.17;;;28.67;;
30723;SDS011;17473;52.286;20.930;2023-01-10T20:43:57;55.87;;;29.53;;
30723;SDS011;17473;52.286;20.930;2023-01-10T20:46:25;57.17;;;29.47;;
30723;SDS011;17473;52.286;20.930;2023-01-10T20:48:56;56.93;;;29.27;;
30723;SDS011;17473;52.286;20.930;2023-01-10T20:51:28;63.23;;;31.43;;
30723;SDS011;17473;52.286;20.930;2023-01-10T20:53:58;60.20;;;31.43;;
30723;SDS011;17473;52.286;20.930;2023-01-10T20:56:26;60.53;;;31.37;;
30723;SDS011;17473;52.286;20.930;2023-01-10T20:58:56;63.03;;;31.93;;
30723;SDS011;17473;52.286;20.930;2023-01-10T21:01:24;63.17;;;32.03;;
30723;SDS011;17473;52.286;20.930;2023-01-10T21:04:04;60.63;;;31.67;;
30723;SDS011;17473;52.286;20.930;2023-01-10T21:06:32;59.50;;;31.00;;
30723;SDS011;17473;52.286;20.930;2023-01-10T21:09:01;57.13;;;30.37;;
30723;SDS011;17473;52.286;20.930;2023-01-10T21:11:30;54.20;;;30.73;;
30723;SDS011;17473;52.286;20.930;2023-01-10T21:14:09;56.07;;;30.43;;
30723;SDS011;17473;52.286;20.930;2023-01-10T21:16:38;56.80;;;30.23;;
30723;SDS011;17473;52.286;20.930;2023-01-10T21:19:05;49.83;;;27.83;;
30723;SDS011;17473;52.286;20.930;2023-01-10T21:21:32;55.20;;;28.50;;
30723;SDS011;17473;52.286;20.930;2023-01-10T21:23:59;54.87;;;28.77;;
30723;SDS011;17473;52.286;20.930;2023-01-10T21:26:26;52.10;;;27.57;;
30723;SDS011;17473;52.286;20.930;2023-01-10T21:28:53;54.97;;;29.20;;
30723;SDS011;17473;52.286;20.930;2023-01-10T21:31:20;48.73;;;26.80;;
30723;SDS011;17473;52.286;20.930;2023-01-10T21:33:48;47.63;;;26.87;;
30723;SDS011;17473;52.286;20.930;2023-01-10T21:36:15;46.73;;;26.77;;
30723;SDS011;17473;52.286;20.930;2023-01-10T21:38:43;48.17;;;26.13;;
30723;SDS011;17473;52.286;20.930;2023-01-10T21:41:11;45.10;;;25.87;;
30723;SDS011;17473;52.286;20.930;2023-01-10T21:44:01;50.60;;;26.90;;
30723;SDS011;17473;52.286;20.930;2023-01-10T21:46:29;47.43;;;25.20;;
30723;SDS011;17473;52.286;20.930;2023-01-10T21:48:57;48.10;;;25.87;;
30723;SDS011;17473;52.286;20.930;2023-01-10T21:51:25;44.80;;;24.90;;
30723;SDS011;17473;52.286;20.930;2023-01-10T21:53:52;48.27;;;26.43;;
30723;SDS011;17473;52.286;20.930;2023-01-10T21:56:20;47.70;;;24.70;;
30723;SDS011;17473;52.286;20.930;2023-01-10T21:58:47;48.60;;;26.53;;
30723;SDS011;17473;52.286;20.930;2023-01-10T22:01:14;46.67;;;25.43;;
30723;SDS011;17473;52.286;20.930;2023-01-10T22:03:43;46.30;;;25.53;;
30723;SDS011;17473;52.286;20.930;2023-01-10T22:06:11;43.90;;;25.10;;
30723;SDS011;17473;52.286;20.930;2023-01-10T22:08:38;42.87;;;24.80;;
30723;SDS011;17473;52.286;20.930;2023-01-10T22:11:05;44.30;;;24.57;;
30723;SDS011;17473;52.286;20.930;2023-01-10T22:13:36;45.17;;;24.30;;
30723;SDS011;17473;52.286;20.930;2023-01-10T22:16:03;45.50;;;24.07;;
30723;SDS011;17473;52.286;20.930;2023-01-10T22:18:32;42.10;;;22.47;;
30723;SDS011;17473;52.286;20.930;2023-01-10T22:20:59;46.77;;;24.43;;
30723;SDS011;17473;52.286;20.930;2023-01-10T22:23:27;43.67;;;24.53;;
30723;SDS011;17473;52.286;20.930;2023-01-10T22:26:11;49.57;;;25.33;;
30723;SDS011;17473;52.286;20.930;2023-01-10T22:28:40;47.63;;;24.60;;
30723;SDS011;17473;52.286;20.930;2023-01-10T22:31:07;50.60;;;25.20;;
30723;SDS011;17473;52.286;20.930;2023-01-10T22:33:35;45.33;;;25.80;;
30723;SDS011;17473;52.286;20.930;2023-01-10T22:36:13;45.87;;;25.73;;
30723;SDS011;17473;52.286;20.930;2023-01-10T22:38:46;44.83;;;25.37;;
30723;SDS011;17473;52.286;20.930;2023-01-10T22:41:15;46.73;;;25.57;;
30723;SDS011;17473;52.286;20.930;2023-01-10T22:43:52;49.77;;;25.23;;
30723;SDS011;17473;52.286;20.930;2023-01-10T22:46:20;45.27;;;26.07;;
30723;SDS011;17473;52.286;20.930;2023-01-10T22:48:48;49.57;;;26.17;;
30723;SDS011;17473;52.286;20.930;2023-01-10T22:51:16;50.33;;;25.53;;
30723;SDS011;17473;52.286;20.930;2023-01-10T22:53:48;45.50;;;25.10;;
30723;SDS011;17473;52.286;20.930;2023-01-10T22:56:21;44.73;;;25.07;;
30723;SDS011;17473;52.286;20.930;2023-01-10T22:58:49;47.00;;;25.57;;
30723;SDS011;17473;52.286;20.930;2023-01-10T23:01:18;48.07;;;25.93;;
30723;SDS011;17473;52.286;20.930;2023-01-10T23:03:47;49.17;;;25.20;;
30723;SDS011;17473;52.286;20.930;2023-01-10T23:06:15;49.27;;;25.00;;
30723;SDS011;17473;52.286;20.930;2023-01-10T23:08:43;48.03;;;24.80;;
30723;SDS011;17473;52.286;20.930;2023-01-10T23:11:11;49.00;;;26.27;;
30723;SDS011;17473;52.286;20.930;2023-01-10T23:13:42;49.53;;;25.27;;
30723;SDS011;17473;52.286;20.930;2023-01-10T23:16:14;48.73;;;25.20;;
30723;SDS011;17473;52.286;20.930;2023-01-10T23:18:54;49.27;;;23.80;;
30723;SDS011;17473;52.286;20.930;2023-01-10T23:21:25;50.07;;;24.23;;
30723;SDS011;17473;52.286;20.930;2023-01-10T23:23:56;48.00;;;25.10;;
30723;SDS011;17473;52.286;20.930;2023-01-10T23:26:23;45.03;;;24.17;;
30723;SDS011;17473;52.286;20.930;2023-01-10T23:28:50;45.20;;;25.20;;
30723;SDS011;17473;52.286;20.930;2023-01-10T23:31:19;49.93;;;23.73;;
30723;SDS011;17473;52.286;20.930;2023-01-10T23:33:48;45.87;;;23.67;;
30723;SDS011;17473;52.286;20.930;2023-01-10T23:36:16;43.80;;;22.20;;
30723;SDS011;17473;52.286;20.930;2023-01-10T23:38:44;49.00;;;23.50;;
30723;SDS011;17473;52.286;20.930;2023-01-10T23:41:12;44.73;;;22.10;;
30723;SDS011;17473;52.286;20.930;2023-01-10T23:43:39;47.97;;;23.13;;